Harumaru No,1 — JD2276 — position and weather

sailwx.info

Track history (hours):
 
Tides and Currents Weather Stations Pressure Air Temp Water Temp Dewpoint Dewpoint Depression Visibility Wind Speed Wind Dir Waves Ship Positions

Harumaru No,1

Last reported at 2017-Oct-17 03:10 UTC. Time now 2017-Oct-17 16:56 UTC.
Position N 34°36' E 134°53'.

Length 145 m; draft 6.5 m.

Type: Other ship. MMSI: 431501868.

Date/timePositionNaut miles runAvg speedWind from/ knotsBaromVisibWave heightAir tempDewpointWater temp
2017-Oct-17 03:10N 34°36' E 134°53'318.0
2017-Oct-17 03:00N 34°37' E 134°56'816.5
2017-Oct-17 02:30N 34°36' E 135°06'1019.5
2017-Oct-17 02:00N 34°33' E 135°18'610.3
2017-Oct-17 01:28N 34°31' E 135°24'0 0.0
2017-Oct-17 00:58N 34°31' E 135°24'0 0.1
2017-Oct-17 00:28N 34°31' E 135°24'0 0.1
2017-Oct-16 23:58N 34°31' E 135°24'0 0.0
2017-Oct-16 23:28N 34°31' E 135°24'0 0.0
2017-Oct-16 23:00N 34°31' E 135°24'0 0.2
2017-Oct-16 22:30N 34°32' E 135°24'5 9.6
2017-Oct-16 22:01N 34°31' E 135°19'918.3
2017-Oct-16 21:30N 34°26' E 135°09'919.0
2017-Oct-16 21:00N 34°19' E 135°01'918.4
2017-Oct-16 20:30N 34°10' E 134°60'918.7
2017-Oct-16 20:00N 34°01' E 135°01'21716.3
2017-Oct-16 06:42N 34°51' E 139°17'318.1
2017-Oct-16 06:30N 34°53' E 139°20'918.0
2017-Oct-16 06:00N 34°58' E 139°30'918.6
2017-Oct-16 05:30N 35°03' E 139°39'1018.9
2017-Oct-16 05:00N 35°11' E 139°46'612.7
2017-Oct-16 04:30N 35°17' E 139°44'714.9
2017-Oct-16 04:00N 35°25' E 139°43'1121.1
2017-Oct-16 03:31N 35°31' E 139°54'11 1.2
2017-Oct-15 17:53N 35°36' E 140°07'0 0.0
2017-Oct-15 17:28N 35°36' E 140°07'0 0.0
2017-Oct-15 16:35N 35°36' E 140°07'0 0.0
2017-Oct-14 22:34N 35°36' E 140°07'0 0.0
2017-Oct-14 22:26N 35°36' E 140°07'1 2.6
2017-Oct-14 22:00N 35°35' E 140°05'613.1
2017-Oct-14 21:31N 35°33' E 139°58'1019.6
2017-Oct-14 21:00N 35°26' E 139°49'714.1
2017-Oct-14 20:31N 35°20' E 139°45'612.4
2017-Oct-14 20:01N 35°14' E 139°47'816.4
2017-Oct-14 19:30N 35°06' E 139°46'918.5
2017-Oct-14 19:00N 34°60' E 139°38'1019.6
2017-Oct-14 18:30N 34°54' E 139°28'23016.5
2017-Oct-14 04:35N 33°53' E 134°59'119.1
2017-Oct-14 04:30N 33°55' E 134°59'1019.4
2017-Oct-14 04:00N 34°05' E 134°58'1019.9
2017-Oct-14 03:30N 34°14' E 134°59'918.5
2017-Oct-14 03:00N 34°23' E 135°03'1019.9
2017-Oct-14 02:30N 34°28' E 135°13'917.6
2017-Oct-14 02:00N 34°32' E 135°23'2 2.2
2017-Oct-14 01:17N 34°31' E 135°24'0 0.0
2017-Oct-13 22:17N 34°31' E 135°24'0 0.0
2017-Oct-13 21:47N 34°31' E 135°24'0 0.0
2017-Oct-13 21:28N 34°31' E 135°24'0 0.1
2017-Oct-13 21:00N 34°31' E 135°24'2 3.8
2017-Oct-13 20:30N 34°33' E 135°23'917.9
2017-Oct-13 20:00N 34°34' E 135°12'1020.4
2017-Oct-13 19:30N 34°37' E 135°00'1120.6
2017-Oct-13 18:59N 34°33' E 134°48'3 0.2
2017-Oct-13 04:18N 34°33' E 134°45'722.1
2017-Oct-13 03:59N 34°35' E 134°53'1020.3
2017-Oct-13 03:30N 34°36' E 135°04'1020.1
2017-Oct-13 03:00N 34°34' E 135°16'712.4
2017-Oct-13 02:27N 34°31' E 135°24'0 0.0
2017-Oct-13 01:45N 34°31' E 135°24'0 0.0
2017-Oct-13 01:09N 34°31' E 135°24'0 0.0
2017-Oct-13 00:57N 34°31' E 135°24'0 0.0
2017-Oct-13 00:21N 34°31' E 135°24'0 0.0
2017-Oct-12 23:51N 34°31' E 135°24'0 0.0
2017-Oct-12 23:27N 34°31' E 135°24'0 0.1
2017-Oct-12 23:00N 34°31' E 135°24'3 6.0
2017-Oct-12 22:30N 34°33' E 135°21'815.7
2017-Oct-12 22:00N 34°28' E 135°13'918.1
2017-Oct-12 21:30N 34°22' E 135°05'917.1
2017-Oct-12 21:00N 34°15' E 134°59'918.8
2017-Oct-12 20:30N 34°06' E 135°01'20915.9
2017-Oct-12 07:20N 34°50' E 139°09'718.9
2017-Oct-12 06:57N 34°56' E 139°15'818.7
2017-Oct-12 06:31N 34°60' E 139°23'918.8
2017-Oct-12 06:00N 35°03' E 139°34'1019.2
2017-Oct-12 05:31N 35°09' E 139°44'714.8
2017-Oct-12 05:01N 35°16' E 139°46'713.2
2017-Oct-12 04:30N 35°22' E 139°42'1019.2
2017-Oct-12 04:00N 35°29' E 139°50'1019.4
2017-Oct-12 03:28N 35°34' E 140°01'5 6.6
2017-Oct-12 02:46N 35°36' E 140°07'0 0.0
2017-Oct-12 02:22N 35°36' E 140°07'0 0.0
2017-Oct-12 01:58N 35°36' E 140°07'17 2.4
2017-Oct-11 19:02N 35°27' E 139°49'118.4
2017-Oct-11 18:59N 35°26' E 139°48'713.7
2017-Oct-11 18:30N 35°20' E 139°45'612.3
2017-Oct-11 18:00N 35°14' E 139°47'816.6
2017-Oct-11 17:30N 35°06' E 139°47'1019.4
2017-Oct-11 17:00N 34°59' E 139°39'21110.6
2017-Oct-10 21:08N 34°31' E 135°24'0 0.0
2017-Oct-10 20:58N 34°31' E 135°24'1 2.9
2017-Oct-10 20:30N 34°33' E 135°23'612.7
2017-Oct-10 20:00N 34°34' E 135°16'714.5
2017-Oct-10 19:30N 34°33' E 135°07'1019.1
2017-Oct-10 19:00N 34°36' E 134°56'16 1.0
2017-Oct-10 03:02N 34°33' E 134°37'220.2
2017-Oct-10 02:56N 34°33' E 134°40'920.6
2017-Oct-10 02:30N 34°34' E 134°50'1020.3
2017-Oct-10 01:59N 34°37' E 135°03'816.9
2017-Oct-10 01:30N 34°35' E 135°12'917.8
2017-Oct-10 01:00N 34°33' E 135°23'1 2.3
2017-Oct-10 00:20N 34°31' E 135°24'0 0.1
2017-Oct-09 23:50N 34°31' E 135°24'0 0.0
2017-Oct-09 23:26N 34°31' E 135°24'0 0.0
2017-Oct-09 22:44N 34°31' E 135°24'0 0.0
2017-Oct-09 22:26N 34°31' E 135°24'0 0.0
2017-Oct-09 21:56N 34°31' E 135°24'0 0.1
2017-Oct-09 21:26N 34°31' E 135°24'0 0.1
2017-Oct-09 20:56N 34°31' E 135°24'0 0.0
2017-Oct-09 20:20N 34°31' E 135°24'0 0.0
2017-Oct-09 19:56N 34°31' E 135°24'0 0.0
2017-Oct-09 19:26N 34°31' E 135°24'0 0.0
2017-Oct-09 18:56N 34°31' E 135°24'0 0.0
2017-Oct-09 18:26N 34°31' E 135°24'0 0.0
2017-Oct-09 17:56N 34°31' E 135°24'0 0.0
2017-Oct-09 17:26N 34°31' E 135°24'0 0.0
2017-Oct-09 16:56N 34°31' E 135°24'0 0.0
2017-Oct-09 16:26N 34°31' E 135°24'0 0.0
2017-Oct-09 15:50N 34°31' E 135°24'0 0.0
2017-Oct-09 15:26N 34°31' E 135°24'0 0.0
2017-Oct-09 14:56N 34°31' E 135°24'0 0.0
2017-Oct-09 14:26N 34°31' E 135°24'0 0.0
2017-Oct-09 13:56N 34°31' E 135°24'0 0.0
2017-Oct-09 13:20N 34°31' E 135°24'0 0.0
2017-Oct-09 12:56N 34°31' E 135°24'0 0.0
2017-Oct-09 12:08N 34°31' E 135°24'0 0.0
2017-Oct-09 11:56N 34°31' E 135°24'0 0.0
2017-Oct-09 11:20N 34°31' E 135°24'0 0.0
2017-Oct-09 10:56N 34°31' E 135°24'0 0.0
2017-Oct-09 10:20N 34°31' E 135°24'0 0.0
2017-Oct-09 09:50N 34°31' E 135°24'0 0.0
2017-Oct-09 09:20N 34°31' E 135°24'0 0.0
2017-Oct-09 08:56N 34°31' E 135°24'0 0.1
2017-Oct-09 08:26N 34°31' E 135°24'0 0.1
2017-Oct-09 07:50N 34°31' E 135°24'0 0.0
2017-Oct-09 07:26N 34°31' E 135°24'0 0.0
2017-Oct-09 06:56N 34°31' E 135°24'0 0.0
2017-Oct-09 06:14N 34°31' E 135°24'0 0.0
2017-Oct-09 05:56N 34°31' E 135°24'0 0.0
2017-Oct-09 05:26N 34°31' E 135°24'0 0.1
2017-Oct-09 04:56N 34°31' E 135°24'0 0.1
2017-Oct-09 04:20N 34°31' E 135°24'0 0.0
2017-Oct-09 03:44N 34°31' E 135°24'0 0.2
2017-Oct-09 03:26N 34°31' E 135°24'0 0.1
2017-Oct-09 02:44N 34°31' E 135°24'0 0.0
2017-Oct-09 02:20N 34°31' E 135°24'0 0.0
2017-Oct-09 01:56N 34°31' E 135°24'0 0.0
2017-Oct-09 01:26N 34°31' E 135°24'0 0.0
2017-Oct-09 00:56N 34°31' E 135°24'0 0.0
2017-Oct-09 00:26N 34°31' E 135°24'0 0.0
2017-Oct-08 23:56N 34°31' E 135°24'0 0.0
2017-Oct-08 23:26N 34°31' E 135°24'0 0.0
2017-Oct-08 23:00N 34°31' E 135°24'2 3.5
2017-Oct-08 22:30N 34°32' E 135°22'816.3
2017-Oct-08 22:01N 34°29' E 135°13'918.4
2017-Oct-08 21:31N 34°24' E 135°04'918.9
2017-Oct-08 21:01N 34°16' E 134°59'918.8
2017-Oct-08 20:30N 34°06' E 135°01'21916.0
2017-Oct-08 06:47N 34°53' E 139°21'518.7
2017-Oct-08 06:30N 34°56' E 139°26'1018.9
2017-Oct-08 06:00N 35°02' E 139°35'1019.6
2017-Oct-08 05:30N 35°08' E 139°44'815.1
2017-Oct-08 05:01N 35°16' E 139°46'713.4
2017-Oct-08 04:30N 35°22' E 139°42'1019.7
2017-Oct-08 04:00N 35°29' E 139°50'1318.5
2017-Oct-08 03:17N 35°36' E 140°04'2 0.3
2017-Oct-07 20:42N 35°36' E 140°07'0 0.0
2017-Oct-07 20:30N 35°36' E 140°07'1 2.1
2017-Oct-07 19:59N 35°35' E 140°05'510.9
2017-Oct-07 19:30N 35°33' E 139°60'1020.0
2017-Oct-07 19:01N 35°27' E 139°50'714.8
2017-Oct-07 18:30N 35°21' E 139°45'612.3
2017-Oct-07 18:01N 35°15' E 139°47'815.8
2017-Oct-07 17:30N 35°07' E 139°47'918.1
2017-Oct-07 17:00N 35°01' E 139°39'917.4
2017-Oct-07 16:30N 34°56' E 139°30'  
Track history (hours):
 
Tides and Currents Weather Stations Pressure Air Temp Water Temp Dewpoint Dewpoint Depression Visibility Wind Speed Wind Dir Waves Ship Positions

Harumaru No,1

Last reported at 2017-Oct-17 03:10 UTC. Time now 2017-Oct-17 16:56 UTC.
Position N 34°36' E 134°53'.

Length 145 m; draft 6.5 m.

Type: Other ship. MMSI: 431501868.

Date/timePositionNaut miles runAvg speedWind from/ knotsBaromVisibWave heightAir tempDewpointWater temp
2017-Oct-17 03:10N 34°36' E 134°53'318.0
2017-Oct-17 03:00N 34°37' E 134°56'816.5
2017-Oct-17 02:30N 34°36' E 135°06'1019.5
2017-Oct-17 02:00N 34°33' E 135°18'610.3
2017-Oct-17 01:28N 34°31' E 135°24'0 0.0
2017-Oct-17 00:58N 34°31' E 135°24'0 0.1
2017-Oct-17 00:28N 34°31' E 135°24'0 0.1
2017-Oct-16 23:58N 34°31' E 135°24'0 0.0
2017-Oct-16 23:28N 34°31' E 135°24'0 0.0
2017-Oct-16 23:00N 34°31' E 135°24'0 0.2
2017-Oct-16 22:30N 34°32' E 135°24'5 9.6
2017-Oct-16 22:01N 34°31' E 135°19'918.3
2017-Oct-16 21:30N 34°26' E 135°09'919.0
2017-Oct-16 21:00N 34°19' E 135°01'918.4
2017-Oct-16 20:30N 34°10' E 134°60'918.7
2017-Oct-16 20:00N 34°01' E 135°01'21716.3
2017-Oct-16 06:42N 34°51' E 139°17'318.1
2017-Oct-16 06:30N 34°53' E 139°20'918.0
2017-Oct-16 06:00N 34°58' E 139°30'918.6
2017-Oct-16 05:30N 35°03' E 139°39'1018.9
2017-Oct-16 05:00N 35°11' E 139°46'612.7
2017-Oct-16 04:30N 35°17' E 139°44'714.9
2017-Oct-16 04:00N 35°25' E 139°43'1121.1
2017-Oct-16 03:31N 35°31' E 139°54'11 1.2
2017-Oct-15 17:53N 35°36' E 140°07'0 0.0
2017-Oct-15 17:28N 35°36' E 140°07'0 0.0
2017-Oct-15 16:35N 35°36' E 140°07'0 0.0
2017-Oct-14 22:34N 35°36' E 140°07'0 0.0
2017-Oct-14 22:26N 35°36' E 140°07'1 2.6
2017-Oct-14 22:00N 35°35' E 140°05'613.1
2017-Oct-14 21:31N 35°33' E 139°58'1019.6
2017-Oct-14 21:00N 35°26' E 139°49'714.1
2017-Oct-14 20:31N 35°20' E 139°45'612.4
2017-Oct-14 20:01N 35°14' E 139°47'816.4
2017-Oct-14 19:30N 35°06' E 139°46'918.5
2017-Oct-14 19:00N 34°60' E 139°38'1019.6
2017-Oct-14 18:30N 34°54' E 139°28'23016.5
2017-Oct-14 04:35N 33°53' E 134°59'119.1
2017-Oct-14 04:30N 33°55' E 134°59'1019.4
2017-Oct-14 04:00N 34°05' E 134°58'1019.9
2017-Oct-14 03:30N 34°14' E 134°59'918.5
2017-Oct-14 03:00N 34°23' E 135°03'1019.9
2017-Oct-14 02:30N 34°28' E 135°13'917.6
2017-Oct-14 02:00N 34°32' E 135°23'2 2.2
2017-Oct-14 01:17N 34°31' E 135°24'0 0.0
2017-Oct-13 22:17N 34°31' E 135°24'0 0.0
2017-Oct-13 21:47N 34°31' E 135°24'0 0.0
2017-Oct-13 21:28N 34°31' E 135°24'0 0.1
2017-Oct-13 21:00N 34°31' E 135°24'2 3.8
2017-Oct-13 20:30N 34°33' E 135°23'917.9
2017-Oct-13 20:00N 34°34' E 135°12'1020.4
2017-Oct-13 19:30N 34°37' E 135°00'1120.6
2017-Oct-13 18:59N 34°33' E 134°48'3 0.2
2017-Oct-13 04:18N 34°33' E 134°45'722.1
2017-Oct-13 03:59N 34°35' E 134°53'1020.3
2017-Oct-13 03:30N 34°36' E 135°04'1020.1
2017-Oct-13 03:00N 34°34' E 135°16'712.4
2017-Oct-13 02:27N 34°31' E 135°24'0 0.0
2017-Oct-13 01:45N 34°31' E 135°24'0 0.0
2017-Oct-13 01:09N 34°31' E 135°24'0 0.0
2017-Oct-13 00:57N 34°31' E 135°24'0 0.0
2017-Oct-13 00:21N 34°31' E 135°24'0 0.0
2017-Oct-12 23:51N 34°31' E 135°24'0 0.0
2017-Oct-12 23:27N 34°31' E 135°24'0 0.1
2017-Oct-12 23:00N 34°31' E 135°24'3 6.0
2017-Oct-12 22:30N 34°33' E 135°21'815.7
2017-Oct-12 22:00N 34°28' E 135°13'918.1
2017-Oct-12 21:30N 34°22' E 135°05'917.1
2017-Oct-12 21:00N 34°15' E 134°59'918.8
2017-Oct-12 20:30N 34°06' E 135°01'20915.9
2017-Oct-12 07:20N 34°50' E 139°09'718.9
2017-Oct-12 06:57N 34°56' E 139°15'818.7
2017-Oct-12 06:31N 34°60' E 139°23'918.8
2017-Oct-12 06:00N 35°03' E 139°34'1019.2
2017-Oct-12 05:31N 35°09' E 139°44'714.8
2017-Oct-12 05:01N 35°16' E 139°46'713.2
2017-Oct-12 04:30N 35°22' E 139°42'1019.2
2017-Oct-12 04:00N 35°29' E 139°50'1019.4
2017-Oct-12 03:28N 35°34' E 140°01'5 6.6
2017-Oct-12 02:46N 35°36' E 140°07'0 0.0
2017-Oct-12 02:22N 35°36' E 140°07'0 0.0
2017-Oct-12 01:58N 35°36' E 140°07'17 2.4
2017-Oct-11 19:02N 35°27' E 139°49'118.4
2017-Oct-11 18:59N 35°26' E 139°48'713.7
2017-Oct-11 18:30N 35°20' E 139°45'612.3
2017-Oct-11 18:00N 35°14' E 139°47'816.6
2017-Oct-11 17:30N 35°06' E 139°47'1019.4
2017-Oct-11 17:00N 34°59' E 139°39'21110.6
2017-Oct-10 21:08N 34°31' E 135°24'0 0.0
2017-Oct-10 20:58N 34°31' E 135°24'1 2.9
2017-Oct-10 20:30N 34°33' E 135°23'612.7
2017-Oct-10 20:00N 34°34' E 135°16'714.5
2017-Oct-10 19:30N 34°33' E 135°07'1019.1
2017-Oct-10 19:00N 34°36' E 134°56'16 1.0
2017-Oct-10 03:02N 34°33' E 134°37'220.2
2017-Oct-10 02:56N 34°33' E 134°40'920.6
2017-Oct-10 02:30N 34°34' E 134°50'1020.3
2017-Oct-10 01:59N 34°37' E 135°03'816.9
2017-Oct-10 01:30N 34°35' E 135°12'917.8
2017-Oct-10 01:00N 34°33' E 135°23'1 2.3
2017-Oct-10 00:20N 34°31' E 135°24'0 0.1
2017-Oct-09 23:50N 34°31' E 135°24'0 0.0
2017-Oct-09 23:26N 34°31' E 135°24'0 0.0
2017-Oct-09 22:44N 34°31' E 135°24'0 0.0
2017-Oct-09 22:26N 34°31' E 135°24'0 0.0
2017-Oct-09 21:56N 34°31' E 135°24'0 0.1
2017-Oct-09 21:26N 34°31' E 135°24'0 0.1
2017-Oct-09 20:56N 34°31' E 135°24'0 0.0
2017-Oct-09 20:20N 34°31' E 135°24'0 0.0
2017-Oct-09 19:56N 34°31' E 135°24'0 0.0
2017-Oct-09 19:26N 34°31' E 135°24'0 0.0
2017-Oct-09 18:56N 34°31' E 135°24'0 0.0
2017-Oct-09 18:26N 34°31' E 135°24'0 0.0
2017-Oct-09 17:56N 34°31' E 135°24'0 0.0
2017-Oct-09 17:26N 34°31' E 135°24'0 0.0
2017-Oct-09 16:56N 34°31' E 135°24'0 0.0
2017-Oct-09 16:26N 34°31' E 135°24'0 0.0
2017-Oct-09 15:50N 34°31' E 135°24'0 0.0
2017-Oct-09 15:26N 34°31' E 135°24'0 0.0
2017-Oct-09 14:56N 34°31' E 135°24'0 0.0
2017-Oct-09 14:26N 34°31' E 135°24'0 0.0
2017-Oct-09 13:56N 34°31' E 135°24'0 0.0
2017-Oct-09 13:20N 34°31' E 135°24'0 0.0
2017-Oct-09 12:56N 34°31' E 135°24'0 0.0
2017-Oct-09 12:08N 34°31' E 135°24'0 0.0
2017-Oct-09 11:56N 34°31' E 135°24'0 0.0
2017-Oct-09 11:20N 34°31' E 135°24'0 0.0
2017-Oct-09 10:56N 34°31' E 135°24'0 0.0
2017-Oct-09 10:20N 34°31' E 135°24'0 0.0
2017-Oct-09 09:50N 34°31' E 135°24'0 0.0
2017-Oct-09 09:20N 34°31' E 135°24'0 0.0
2017-Oct-09 08:56N 34°31' E 135°24'0 0.1
2017-Oct-09 08:26N 34°31' E 135°24'0 0.1
2017-Oct-09 07:50N 34°31' E 135°24'0 0.0
2017-Oct-09 07:26N 34°31' E 135°24'0 0.0
2017-Oct-09 06:56N 34°31' E 135°24'0 0.0
2017-Oct-09 06:14N 34°31' E 135°24'0 0.0
2017-Oct-09 05:56N 34°31' E 135°24'0 0.0
2017-Oct-09 05:26N 34°31' E 135°24'0 0.1
2017-Oct-09 04:56N 34°31' E 135°24'0 0.1
2017-Oct-09 04:20N 34°31' E 135°24'0 0.0
2017-Oct-09 03:44N 34°31' E 135°24'0 0.2
2017-Oct-09 03:26N 34°31' E 135°24'0 0.1
2017-Oct-09 02:44N 34°31' E 135°24'0 0.0
2017-Oct-09 02:20N 34°31' E 135°24'0 0.0
2017-Oct-09 01:56N 34°31' E 135°24'0 0.0
2017-Oct-09 01:26N 34°31' E 135°24'0 0.0
2017-Oct-09 00:56N 34°31' E 135°24'0 0.0
2017-Oct-09 00:26N 34°31' E 135°24'0 0.0
2017-Oct-08 23:56N 34°31' E 135°24'0 0.0
2017-Oct-08 23:26N 34°31' E 135°24'0 0.0
2017-Oct-08 23:00N 34°31' E 135°24'2 3.5
2017-Oct-08 22:30N 34°32' E 135°22'816.3
2017-Oct-08 22:01N 34°29' E 135°13'918.4
2017-Oct-08 21:31N 34°24' E 135°04'918.9
2017-Oct-08 21:01N 34°16' E 134°59'918.8
2017-Oct-08 20:30N 34°06' E 135°01'21916.0
2017-Oct-08 06:47N 34°53' E 139°21'518.7
2017-Oct-08 06:30N 34°56' E 139°26'1018.9
2017-Oct-08 06:00N 35°02' E 139°35'1019.6
2017-Oct-08 05:30N 35°08' E 139°44'815.1
2017-Oct-08 05:01N 35°16' E 139°46'713.4
2017-Oct-08 04:30N 35°22' E 139°42'1019.7
2017-Oct-08 04:00N 35°29' E 139°50'1318.5
2017-Oct-08 03:17N 35°36' E 140°04'2 0.3
2017-Oct-07 20:42N 35°36' E 140°07'0 0.0
2017-Oct-07 20:30N 35°36' E 140°07'1 2.1
2017-Oct-07 19:59N 35°35' E 140°05'510.9
2017-Oct-07 19:30N 35°33' E 139°60'1020.0
2017-Oct-07 19:01N 35°27' E 139°50'714.8
2017-Oct-07 18:30N 35°21' E 139°45'612.3
2017-Oct-07 18:01N 35°15' E 139°47'815.8
2017-Oct-07 17:30N 35°07' E 139°47'918.1
2017-Oct-07 17:00N 35°01' E 139°39'917.4
2017-Oct-07 16:30N 34°56' E 139°30'  

Dump ship's entire track history